< Typhoon 197826 1978 Season Typhoon 197828 >
Typhoon 197827 (NO-NAME)
General InformationTrack Information on Google MapsDetailed Wind Information || Disaster Info.ResourceGoogle EarthGE AnimationAtom FeedGeoJSON
Detalied Best Track (Time Zone = UTC)
Year Month Day Hour Lat. Long. Pressure (hPa) Wind (kt) Class Image Chart
1978 10 29 18 14.0 131.0 1004 0 2 -- Chart
1978 10 30 00 14.0 129.0 1006 0 2 -- Chart
1978 10 30 06 13.0 128.0 1004 0 2 -- Chart
1978 10 30 12 12.4 127.0 1004 0 2 -- Chart
1978 10 30 18 12.0 126.0 1004 0 2 -- Chart
1978 10 31 00 11.6 125.0 1004 0 2 -- Chart
1978 10 31 06 11.5 124.0 1002 0 2 -- Chart
1978 10 31 12 12.0 121.5 1004 0 2 -- Chart
1978 10 31 18 12.0 119.0 1004 0 2 -- Chart
1978 11 1 00 11.5 117.5 1000 0 2 -- Chart
1978 11 1 06 11.0 117.0 1000 0 2 -- Chart
1978 11 1 12 11.0 116.3 998 0 2 -- Chart
1978 11 1 18 11.0 115.5 996 0 2 -- Chart
1978 11 2 00 11.0 114.5 992 45 3 -- Chart
1978 11 2 06 11.3 113.0 992 45 3 -- Chart
1978 11 2 12 11.6 112.0 992 45 3 -- Chart
1978 11 2 18 11.7 111.0 992 45 3 -- Chart
1978 11 3 00 11.6 110.2 994 35 3 -- Chart
1978 11 3 06 12.0 109.1 998 35 3 -- Chart
1978 11 3 12 12.0 108.0 1006 0 2 -- Chart
Japan Meteorological Agency Best Track Data | Correction Date : 1992-10-21
< Typhoon 197826 1978 Season Typhoon 197828 >

Help